createdAt,value
2017-04-20T00:00:36.027Z,6.40
2017-04-20T00:01:35.640Z,7.58
2017-04-20T00:02:35.293Z,7.47
2017-04-20T00:03:35.010Z,8.30
2017-04-20T00:04:35.369Z,7.57
2017-04-20T00:05:35.069Z,7.63
2017-04-20T00:06:34.735Z,8.42
2017-04-20T00:07:34.372Z,7.28
2017-04-20T00:08:34.104Z,8.00
2017-04-20T00:09:33.725Z,7.07
2017-04-20T00:10:33.352Z,8.33
2017-04-20T00:11:33.127Z,6.90
2017-04-20T00:12:33.320Z,7.77
2017-04-20T00:13:32.949Z,7.25
2017-04-20T00:14:32.637Z,7.10
2017-04-20T00:15:32.281Z,10.08
2017-04-20T00:16:31.999Z,7.15
2017-04-20T00:17:31.672Z,8.22
2017-04-20T00:18:31.396Z,9.43
2017-04-20T00:19:31.033Z,6.23
2017-04-20T00:20:30.645Z,7.72
2017-04-20T00:21:30.274Z,6.80
2017-04-20T00:22:29.893Z,7.65
2017-04-20T00:23:29.601Z,7.05
2017-04-20T00:24:29.215Z,7.00
2017-04-20T00:25:28.829Z,7.95
2017-04-20T00:26:28.452Z,8.17
2017-04-20T00:27:28.168Z,6.87
2017-04-20T00:28:28.554Z,6.97
2017-04-20T00:29:28.247Z,7.12
2017-04-20T00:30:27.977Z,8.38
2017-04-20T00:31:27.622Z,7.38
2017-04-20T00:32:27.296Z,7.90
2017-04-20T00:33:26.914Z,7.75
2017-04-20T00:34:26.532Z,6.93
2017-04-20T00:35:26.227Z,7.28
2017-04-20T00:36:25.922Z,7.12
2017-04-20T00:37:25.591Z,8.45
2017-04-20T00:38:25.257Z,8.03
2017-04-20T00:39:25.670Z,8.95
2017-04-20T00:40:25.335Z,7.27
2017-04-20T00:41:25.074Z,8.12
2017-04-20T00:42:24.833Z,6.67
2017-04-20T00:43:24.448Z,8.48
2017-04-20T00:44:24.169Z,9.53
2017-04-20T00:45:24.532Z,7.47
2017-04-20T00:46:24.155Z,7.87
2017-04-20T00:47:23.813Z,7.37
2017-04-20T00:48:23.537Z,7.32
2017-04-20T00:49:23.271Z,8.30
2017-04-20T00:50:23.004Z,7.80
2017-04-20T00:51:22.652Z,7.88
2017-04-20T00:52:22.258Z,7.30
2017-04-20T00:53:21.928Z,7.30
2017-04-20T00:54:21.560Z,8.45
2017-04-20T00:55:21.188Z,6.88
2017-04-20T00:56:20.846Z,8.98
2017-04-20T00:57:20.460Z,7.22
2017-04-20T00:58:20.105Z,8.23
2017-04-20T00:59:19.875Z,7.05
2017-04-20T01:00:19.580Z,8.63
2017-04-20T01:01:19.197Z,6.85
2017-04-20T01:02:18.792Z,6.98
2017-04-20T01:03:18.419Z,6.77
2017-04-20T01:04:18.073Z,7.98
2017-04-20T01:05:17.720Z,7.53
2017-04-20T01:06:17.340Z,8.48
2017-04-20T01:07:16.956Z,6.28
2017-04-20T01:08:16.640Z,6.73
2017-04-20T01:09:16.268Z,7.68
2017-04-20T01:10:16.021Z,7.02
2017-04-20T01:11:15.685Z,7.38
2017-04-20T01:12:15.303Z,6.40
2017-04-20T01:13:14.925Z,7.52
2017-04-20T01:14:14.605Z,10.05
2017-04-20T01:15:14.227Z,8.40
2017-04-20T01:16:13.898Z,7.83
2017-04-20T01:17:13.655Z,8.38
2017-04-20T01:18:13.307Z,8.68
2017-04-20T01:19:13.072Z,7.15
2017-04-20T01:20:12.793Z,8.35
2017-04-20T01:21:12.429Z,8.10
2017-04-20T01:22:12.188Z,8.15
2017-04-20T01:23:11.855Z,8.10
2017-04-20T01:24:11.492Z,7.98
2017-04-20T01:25:11.113Z,8.97
2017-04-20T01:26:10.729Z,7.48
2017-04-20T01:27:10.401Z,7.40
2017-04-20T01:28:10.034Z,8.20
2017-04-20T01:29:09.704Z,7.33
2017-04-20T01:30:09.331Z,7.55
2017-04-20T01:31:08.980Z,8.88
2017-04-20T01:32:08.616Z,9.25
2017-04-20T01:33:08.224Z,8.15
2017-04-20T01:34:07.909Z,7.78
2017-04-20T01:35:07.604Z,8.45
2017-04-20T01:36:07.229Z,7.48
2017-04-20T01:37:06.913Z,6.90
2017-04-20T01:38:06.554Z,7.52
2017-04-20T01:39:06.460Z,8.22
2017-04-20T01:40:06.159Z,8.05
2017-04-20T01:41:05.879Z,6.87
2017-04-20T01:42:05.533Z,7.98
2017-04-20T01:43:05.207Z,6.63
2017-04-20T01:44:04.884Z,6.60
2017-04-20T01:45:04.635Z,6.80
2017-04-20T01:46:04.263Z,8.30
2017-04-20T01:47:03.943Z,7.28
2017-04-20T01:48:03.628Z,7.57
2017-04-20T01:49:03.272Z,7.68
2017-04-20T01:50:02.925Z,7.80
2017-04-20T01:51:03.292Z,8.72
2017-04-20T01:52:02.899Z,7.35
2017-04-20T01:53:02.579Z,8.40
2017-04-20T01:54:02.201Z,7.75
2017-04-20T01:55:01.812Z,7.87
2017-04-20T01:56:01.392Z,9.83
2017-04-20T01:57:01.016Z,6.67
2017-04-20T01:58:01.380Z,6.43
2017-04-20T01:59:01.103Z,6.80
2017-04-20T02:00:00.729Z,7.27
2017-04-20T02:01:00.356Z,9.75
2017-04-20T02:01:59.976Z,8.42
2017-04-20T02:02:59.609Z,8.20
2017-04-20T02:03:59.253Z,7.42
2017-04-20T02:04:58.910Z,7.32
2017-04-20T02:05:59.272Z,6.78
2017-04-20T02:06:58.888Z,8.37
2017-04-20T02:07:58.524Z,9.15
2017-04-20T02:08:58.186Z,7.40
2017-04-20T02:09:57.850Z,6.75
2017-04-20T02:10:57.587Z,8.83
2017-04-20T02:11:57.265Z,7.82
2017-04-20T02:12:57.009Z,7.08
2017-04-20T02:13:56.660Z,7.62
2017-04-20T02:14:56.388Z,7.90
2017-04-20T02:15:56.022Z,7.43
2017-04-20T02:16:55.696Z,7.55
2017-04-20T02:17:55.347Z,8.50
2017-04-20T02:18:55.768Z,7.28
2017-04-20T02:19:55.396Z,8.57
2017-04-20T02:20:55.028Z,7.85
2017-04-20T02:21:54.676Z,7.75
2017-04-20T02:22:54.388Z,8.12
2017-04-20T02:23:54.100Z,7.65
2017-04-20T02:24:53.746Z,7.07
2017-04-20T02:25:53.354Z,7.10
2017-04-20T02:26:53.751Z,8.77
2017-04-20T02:27:53.397Z,7.02
2017-04-20T02:28:53.800Z,9.03
2017-04-20T02:29:53.518Z,7.92
2017-04-20T02:30:53.148Z,9.02
2017-04-20T02:31:52.776Z,7.45
2017-04-20T02:32:52.402Z,6.95
2017-04-20T02:33:52.027Z,7.30
2017-04-20T02:34:51.696Z,9.55
2017-04-20T02:35:51.316Z,7.15
2017-04-20T02:36:50.996Z,9.12
2017-04-20T02:37:51.533Z,8.17
2017-04-20T02:38:51.220Z,7.15
2017-04-20T02:39:51.609Z,8.82
2017-04-20T02:40:51.272Z,7.88
2017-04-20T02:41:50.893Z,8.37
2017-04-20T02:42:50.539Z,7.03
2017-04-20T02:43:50.151Z,7.82
2017-04-20T02:44:49.788Z,7.83
2017-04-20T02:45:49.517Z,9.12
2017-04-20T02:46:49.135Z,8.98
2017-04-20T02:47:48.778Z,9.43
2017-04-20T02:48:48.389Z,7.53
2017-04-20T02:49:48.016Z,7.93
2017-04-20T02:50:47.627Z,8.18
2017-04-20T02:51:47.297Z,7.23
2017-04-20T02:52:46.925Z,6.98
2017-04-20T02:53:46.538Z,7.53
2017-04-20T02:54:46.181Z,6.92
2017-04-20T02:55:45.820Z,6.92
2017-04-20T02:56:45.432Z,8.12
2017-04-20T02:57:45.191Z,7.83
2017-04-20T02:58:44.803Z,8.60
2017-04-20T02:59:44.446Z,8.02
2017-04-20T03:00:44.166Z,8.90
2017-04-20T03:01:43.805Z,8.63
2017-04-20T03:02:43.447Z,8.82
2017-04-20T03:03:43.140Z,9.02
2017-04-20T03:04:42.781Z,9.17
2017-04-20T03:05:42.488Z,8.08
2017-04-20T03:06:42.116Z,8.40
2017-04-20T03:07:41.852Z,7.43
2017-04-20T03:08:41.481Z,7.50
2017-04-20T03:09:41.167Z,7.70
2017-04-20T03:10:40.786Z,7.57
2017-04-20T03:11:40.402Z,7.00
2017-04-20T03:12:40.142Z,8.20
2017-04-20T03:13:39.805Z,8.92
2017-04-20T03:14:39.532Z,7.65
2017-04-20T03:15:39.249Z,7.45
2017-04-20T03:16:38.925Z,7.63
2017-04-20T03:17:38.558Z,7.70
2017-04-20T03:18:38.207Z,7.22
2017-04-20T03:19:37.867Z,7.82
2017-04-20T03:20:37.494Z,8.42
2017-04-20T03:21:37.167Z,7.68
2017-04-20T03:22:36.776Z,8.90
2017-04-20T03:23:36.430Z,8.07
2017-04-20T03:24:36.086Z,8.25
2017-04-20T03:25:35.712Z,7.05
2017-04-20T03:26:35.345Z,9.57
2017-04-20T03:27:35.064Z,8.65
2017-04-20T03:28:35.441Z,7.70
2017-04-20T03:29:35.108Z,6.73
2017-04-20T03:30:34.733Z,7.63
2017-04-20T03:31:34.408Z,7.93
2017-04-20T03:32:34.074Z,8.22
2017-04-20T03:33:33.788Z,8.17
2017-04-20T03:34:33.500Z,8.65
2017-04-20T03:35:33.132Z,9.00
2017-04-20T03:36:32.751Z,7.75
2017-04-20T03:37:32.370Z,8.38
2017-04-20T03:38:32.065Z,8.20
2017-04-20T03:39:31.729Z,8.03
2017-04-20T03:40:31.349Z,8.30
2017-04-20T03:41:30.987Z,8.02
2017-04-20T03:42:30.590Z,8.50
2017-04-20T03:43:30.209Z,8.02
2017-04-20T03:44:29.852Z,8.63
2017-04-20T03:45:29.526Z,8.35
2017-04-20T03:46:29.176Z,6.58
2017-04-20T03:47:28.797Z,8.75
2017-04-20T03:48:28.488Z,7.13
2017-04-20T03:49:28.106Z,8.27
2017-04-20T03:50:27.729Z,9.47
2017-04-20T03:51:27.387Z,9.25
2017-04-20T03:52:27.003Z,8.67
2017-04-20T03:53:27.355Z,8.85
2017-04-20T03:54:27.719Z,7.83
2017-04-20T03:55:27.351Z,9.02
2017-04-20T03:56:27.013Z,8.75
2017-04-20T03:57:26.765Z,9.05
2017-04-20T03:58:26.405Z,8.88
2017-04-20T03:59:26.032Z,8.48
2017-04-20T04:00:25.660Z,8.27
2017-04-20T04:01:25.306Z,8.60
2017-04-20T04:02:25.674Z,8.40
2017-04-20T04:03:25.450Z,8.05
2017-04-20T04:04:25.059Z,8.17
2017-04-20T04:05:24.865Z,7.78
2017-04-20T04:06:24.480Z,9.83
2017-04-20T04:07:24.113Z,8.28
2017-04-20T04:08:23.761Z,8.65
2017-04-20T04:09:23.412Z,9.37
2017-04-20T04:10:23.036Z,7.22
2017-04-20T04:11:22.702Z,7.78
2017-04-20T04:12:22.349Z,8.23
2017-04-20T04:13:21.972Z,9.45
2017-04-20T04:14:21.619Z,6.63
2017-04-20T04:15:21.288Z,7.60
2017-04-20T04:16:21.656Z,9.15
2017-04-20T04:17:21.304Z,8.65
2017-04-20T04:18:21.685Z,7.43
2017-04-20T04:19:21.298Z,7.63
2017-04-20T04:20:20.961Z,9.58
2017-04-20T04:21:20.672Z,7.85
2017-04-20T04:22:20.299Z,7.25
2017-04-20T04:23:19.890Z,8.50
2017-04-20T04:24:19.516Z,7.88
2017-04-20T04:25:19.158Z,8.43
2017-04-20T04:26:18.791Z,7.98
2017-04-20T04:27:18.476Z,8.47
2017-04-20T04:28:18.101Z,9.77
2017-04-20T04:29:17.732Z,8.33
2017-04-20T04:30:17.368Z,10.28
2017-04-20T04:31:17.048Z,8.90
2017-04-20T04:32:16.687Z,8.70
2017-04-20T04:33:16.348Z,8.93
2017-04-20T04:34:15.997Z,9.30
2017-04-20T04:35:15.617Z,7.75
2017-04-20T04:36:15.248Z,7.63
2017-04-20T04:37:14.926Z,8.23
2017-04-20T04:38:14.552Z,7.58
2017-04-20T04:39:14.349Z,7.02
2017-04-20T04:40:13.998Z,8.27
2017-04-20T04:41:14.382Z,8.60
2017-04-20T04:42:14.003Z,8.53
2017-04-20T04:43:13.638Z,7.25
2017-04-20T04:44:13.276Z,7.47
2017-04-20T04:45:12.935Z,8.85
2017-04-20T04:46:12.548Z,8.02
2017-04-20T04:47:12.170Z,7.92
2017-04-20T04:48:11.795Z,8.90
2017-04-20T04:49:11.489Z,8.13
2017-04-20T04:50:11.154Z,8.37
2017-04-20T04:51:10.886Z,6.10
2017-04-20T04:52:10.507Z,8.17
2017-04-20T04:53:10.160Z,7.58
2017-04-20T04:54:09.878Z,8.42
2017-04-20T04:55:09.515Z,7.42
2017-04-20T04:56:09.134Z,9.85
2017-04-20T04:57:08.862Z,8.87
2017-04-20T04:58:08.547Z,8.77
2017-04-20T04:59:08.267Z,8.70
2017-04-20T05:00:07.926Z,8.55
2017-04-20T05:01:07.591Z,8.83
2017-04-20T05:02:07.191Z,8.12
2017-04-20T05:03:06.920Z,9.60
2017-04-20T05:04:06.553Z,9.92
2017-04-20T05:05:21.423Z,7.88
2017-04-20T05:06:21.043Z,8.63
2017-04-20T05:07:20.680Z,8.22
2017-04-20T05:08:20.397Z,8.85
2017-04-20T05:09:20.026Z,8.52
2017-04-20T05:10:19.660Z,7.65
2017-04-20T05:11:19.392Z,6.00
2017-04-20T05:12:19.011Z,7.22
2017-04-20T05:13:18.652Z,7.62
2017-04-20T05:14:18.348Z,7.85
2017-04-20T05:15:17.989Z,8.37
2017-04-20T05:16:17.612Z,8.40
2017-04-20T05:17:17.259Z,7.85
2017-04-20T05:18:16.878Z,7.17
2017-04-20T05:19:16.510Z,8.45
2017-04-20T05:20:16.179Z,8.65
2017-04-20T05:21:15.864Z,8.97
2017-04-20T05:22:15.483Z,8.15
2017-04-20T05:23:15.137Z,8.08
2017-04-20T05:24:14.776Z,8.90
2017-04-20T05:25:14.401Z,7.07
2017-04-20T05:26:14.069Z,9.00
2017-04-20T05:27:13.852Z,7.45
2017-04-20T05:28:13.588Z,8.62
2017-04-20T05:29:13.255Z,8.80
2017-04-20T05:30:12.924Z,7.73
2017-04-20T05:31:12.560Z,8.85
2017-04-20T05:32:12.307Z,7.92
2017-04-20T05:33:12.757Z,7.52
2017-04-20T05:34:12.396Z,8.22
2017-04-20T05:35:12.197Z,8.20
2017-04-20T05:36:11.855Z,9.57
2017-04-20T05:37:12.278Z,8.10
2017-04-20T05:38:11.990Z,8.43
2017-04-20T05:39:11.673Z,8.00
2017-04-20T05:40:11.407Z,9.23
2017-04-20T05:41:11.086Z,8.08
2017-04-20T05:42:10.729Z,9.03
2017-04-20T05:43:10.426Z,7.32
2017-04-20T05:44:10.065Z,8.10
2017-04-20T05:45:09.750Z,7.38
2017-04-20T05:46:09.403Z,7.83
2017-04-20T05:47:09.503Z,7.78
2017-04-20T05:48:09.167Z,6.97
2017-04-20T05:49:08.959Z,7.97
2017-04-20T05:50:09.355Z,8.15
2017-04-20T05:51:09.086Z,8.92
2017-04-20T05:52:08.713Z,7.00
2017-04-20T05:53:08.330Z,7.55
2017-04-20T05:54:08.061Z,8.15
2017-04-20T05:55:08.493Z,8.95
2017-04-20T05:56:08.089Z,7.47
2017-04-20T05:57:07.737Z,8.07
2017-04-20T05:58:07.376Z,8.35
2017-04-20T05:59:07.031Z,7.32
2017-04-20T06:00:06.762Z,11.07
2017-04-20T06:01:07.176Z,8.20
2017-04-20T06:02:06.877Z,8.27
2017-04-20T06:03:06.504Z,8.62
2017-04-20T06:04:06.151Z,6.65
2017-04-20T06:05:05.828Z,7.63
2017-04-20T06:06:05.509Z,8.00
2017-04-20T06:07:05.205Z,9.32
2017-04-20T06:08:04.893Z,7.18
2017-04-20T06:09:05.801Z,9.32
2017-04-20T06:10:05.469Z,7.93
2017-04-20T06:11:05.101Z,8.95
2017-04-20T06:12:04.720Z,8.90
2017-04-20T06:13:04.412Z,7.20
2017-04-20T06:14:04.028Z,7.70
2017-04-20T06:15:03.654Z,8.50
2017-04-20T06:16:03.378Z,7.38
2017-04-20T06:17:03.117Z,9.08
2017-04-20T06:18:02.885Z,8.63
2017-04-20T06:19:02.544Z,6.98
2017-04-20T06:20:02.160Z,7.88
2017-04-20T06:21:01.787Z,8.75
2017-04-20T06:22:01.456Z,7.40
2017-04-20T06:23:01.101Z,8.70
2017-04-20T06:24:00.853Z,10.28
2017-04-20T06:25:00.519Z,7.88
2017-04-20T06:26:00.153Z,8.70
2017-04-20T06:26:59.776Z,8.67
2017-04-20T06:27:59.409Z,7.18
2017-04-20T06:28:59.024Z,8.15
2017-04-20T06:29:58.641Z,7.03
2017-04-20T06:30:58.336Z,9.15
2017-04-20T06:31:57.958Z,8.57
2017-04-20T06:32:57.570Z,8.58
2017-04-20T06:33:57.323Z,8.45
2017-04-20T06:34:56.957Z,8.17
2017-04-20T06:35:56.597Z,7.97
2017-04-20T06:36:56.316Z,7.58
2017-04-20T06:37:55.944Z,8.80
2017-04-20T06:38:55.572Z,6.62
2017-04-20T06:39:55.309Z,7.77
2017-04-20T06:40:55.087Z,8.10
2017-04-20T06:41:54.808Z,8.17
2017-04-20T06:42:54.488Z,9.80
2017-04-20T06:43:54.121Z,7.55
2017-04-20T06:44:53.742Z,8.23
2017-04-20T06:45:53.502Z,8.72
2017-04-20T06:46:53.284Z,8.33
2017-04-20T06:47:53.146Z,6.98
2017-04-20T06:48:52.901Z,8.90
2017-04-20T06:49:53.289Z,8.55
2017-04-20T06:50:52.949Z,8.48
2017-04-20T06:51:52.624Z,8.55
2017-04-20T06:52:52.620Z,8.20
2017-04-20T06:53:52.356Z,7.88
2017-04-20T06:54:52.115Z,9.02
2017-04-20T06:55:51.935Z,9.37
2017-04-20T06:56:51.569Z,8.88
2017-04-20T06:57:51.311Z,7.18
2017-04-20T06:58:51.010Z,8.53
2017-04-20T06:59:51.443Z,8.57
2017-04-20T07:00:51.228Z,7.52
2017-04-20T07:01:51.582Z,9.48
2017-04-20T07:02:56.865Z,8.38
2017-04-20T07:03:56.791Z,8.13
2017-04-20T07:04:56.500Z,7.32
2017-04-20T07:05:56.165Z,9.37
2017-04-20T07:06:55.867Z,8.45
2017-04-20T07:07:56.242Z,8.18
2017-04-20T07:08:55.981Z,11.50
2017-04-20T07:09:55.613Z,8.37
2017-04-20T07:10:55.281Z,8.22
2017-04-20T07:11:54.926Z,8.87
2017-04-20T07:12:55.314Z,8.22
2017-04-20T07:13:55.704Z,8.12
2017-04-20T07:14:55.326Z,8.38
2017-04-20T07:15:54.992Z,7.70
2017-04-20T07:16:55.363Z,7.33
2017-04-20T07:17:54.996Z,7.75
2017-04-20T07:18:54.577Z,7.38
2017-04-20T07:19:54.209Z,8.17
2017-04-20T07:20:53.807Z,7.35
2017-04-20T07:21:53.479Z,8.15
2017-04-20T07:22:53.191Z,8.15
2017-04-20T07:23:53.568Z,6.45
2017-04-20T07:24:53.219Z,8.68
2017-04-20T07:25:52.839Z,8.35
2017-04-20T07:26:52.472Z,8.05
2017-04-20T07:27:52.146Z,9.40
2017-04-20T07:28:51.779Z,6.78
2017-04-20T07:29:51.399Z,6.95
2017-04-20T07:30:51.086Z,6.55
2017-04-20T07:31:50.696Z,6.53
2017-04-20T07:32:50.332Z,7.37
2017-04-20T07:33:50.027Z,7.48
2017-04-20T07:34:49.652Z,6.18
2017-04-20T07:35:49.304Z,8.32
2017-04-20T07:36:48.938Z,6.65
2017-04-20T07:37:48.552Z,6.90
2017-04-20T07:38:48.261Z,6.62
2017-04-20T07:39:47.936Z,6.85
2017-04-20T07:40:47.564Z,6.63
2017-04-20T07:41:47.193Z,7.17
2017-04-20T07:42:46.819Z,7.65
2017-04-20T07:43:46.457Z,7.67
2017-04-20T07:44:46.969Z,6.60
2017-04-20T07:45:46.643Z,7.53
2017-04-20T07:46:46.271Z,7.08
2017-04-20T07:47:45.896Z,7.47
2017-04-20T07:48:45.532Z,7.50
2017-04-20T07:49:45.254Z,6.90
2017-04-20T07:50:44.907Z,7.70
2017-04-20T07:51:45.323Z,7.43
2017-04-20T07:52:44.957Z,7.13
2017-04-20T07:53:45.321Z,7.48
2017-04-20T07:54:44.951Z,7.28
2017-04-20T07:55:44.611Z,7.40
2017-04-20T07:56:44.229Z,7.83
2017-04-20T07:57:43.897Z,5.75
2017-04-20T07:58:43.531Z,7.15
2017-04-20T07:59:43.149Z,7.00
2017-04-20T08:00:42.778Z,7.57
2017-04-20T08:01:42.392Z,6.72
2017-04-20T08:02:42.104Z,7.10
2017-04-20T08:03:41.886Z,7.40
2017-04-20T08:04:41.649Z,6.97
2017-04-20T08:05:42.067Z,6.67
2017-04-20T08:06:41.760Z,6.53
2017-04-20T08:07:41.391Z,8.60
2017-04-20T08:08:41.020Z,7.42
2017-04-20T08:09:40.698Z,6.60
2017-04-20T08:10:40.317Z,7.28
2017-04-20T08:11:39.925Z,7.07
2017-04-20T08:12:39.584Z,6.90
2017-04-20T08:13:39.195Z,6.95
2017-04-20T08:14:38.812Z,7.67
2017-04-20T08:15:38.482Z,7.35
2017-04-20T08:16:38.951Z,7.02
2017-04-20T08:17:38.882Z,5.90
2017-04-20T08:18:38.518Z,5.92
2017-04-20T08:19:38.136Z,7.88
2017-04-20T08:20:37.844Z,9.13
2017-04-20T08:21:37.511Z,7.72
2017-04-20T08:22:37.241Z,6.97
2017-04-20T08:23:36.874Z,8.60
2017-04-20T08:24:36.517Z,8.13
2017-04-20T08:25:36.189Z,6.23
2017-04-20T08:26:35.820Z,5.93
2017-04-20T08:27:35.465Z,5.35
2017-04-20T08:28:35.067Z,6.37
2017-04-20T08:29:34.671Z,6.43
2017-04-20T08:30:34.301Z,6.83
2017-04-20T08:31:33.929Z,6.28
2017-04-20T08:32:33.609Z,6.50
2017-04-20T08:33:33.401Z,6.10
2017-04-20T08:34:33.028Z,6.25
2017-04-20T08:35:32.653Z,6.13
2017-04-20T08:36:32.278Z,6.73
2017-04-20T08:37:31.999Z,5.92
2017-04-20T08:38:31.615Z,6.40
2017-04-20T08:39:31.277Z,5.62
2017-04-20T08:40:30.991Z,5.57
2017-04-20T08:41:30.669Z,7.02
2017-04-20T08:42:30.389Z,5.35
2017-04-20T08:43:30.020Z,6.40
2017-04-20T08:44:29.668Z,7.17
2017-04-20T08:45:29.344Z,5.87
2017-04-20T08:46:28.980Z,7.88
2017-04-20T08:47:28.674Z,6.42
2017-04-20T08:48:29.037Z,6.35
2017-04-20T08:49:28.648Z,6.88
2017-04-20T08:50:28.262Z,5.88
2017-04-20T08:51:27.927Z,5.68
2017-04-20T08:52:27.547Z,5.77
2017-04-20T08:53:27.167Z,6.08
2017-04-20T08:54:26.865Z,8.20
2017-04-20T08:55:27.237Z,7.57
2017-04-20T08:56:26.885Z,6.10
2017-04-20T08:57:27.303Z,5.92
2017-04-20T08:58:26.944Z,6.60
2017-04-20T08:59:26.560Z,6.85
2017-04-20T09:00:26.190Z,5.85
2017-04-20T09:01:25.804Z,5.80
2017-04-20T09:02:25.435Z,6.00
2017-04-20T09:03:25.192Z,6.12
2017-04-20T09:04:24.823Z,5.15
2017-04-20T09:05:24.428Z,5.20
2017-04-20T09:06:24.836Z,5.80
2017-04-20T09:07:24.588Z,4.18
2017-04-20T09:08:24.311Z,5.15
2017-04-20T09:09:23.949Z,5.48
2017-04-20T09:10:23.682Z,5.08
2017-04-20T09:11:23.339Z,4.30
2017-04-20T09:12:23.011Z,7.90
2017-04-20T09:13:22.669Z,6.20
2017-04-20T09:14:23.124Z,6.40
2017-04-20T09:15:22.828Z,6.20
2017-04-20T09:16:22.588Z,8.55
2017-04-20T09:17:22.243Z,7.32
2017-04-20T09:18:21.950Z,9.37
2017-04-20T09:19:21.587Z,8.93
2017-04-20T09:20:21.277Z,5.23
2017-04-20T09:21:20.917Z,6.28
2017-04-20T09:22:20.548Z,4.70
2017-04-20T09:23:20.272Z,5.18
2017-04-20T09:24:19.912Z,4.35
2017-04-20T09:25:19.561Z,4.37
2017-04-20T09:26:19.221Z,3.73
2017-04-20T09:27:18.964Z,4.97
2017-04-20T09:28:18.601Z,4.20
2017-04-20T09:29:18.229Z,4.62
2017-04-20T09:30:17.956Z,4.32
2017-04-20T09:31:17.633Z,3.28
2017-04-20T09:32:17.320Z,4.25
2017-04-20T09:33:16.933Z,5.07
2017-04-20T09:34:16.561Z,4.40
2017-04-20T09:35:16.215Z,4.27
2017-04-20T09:36:15.945Z,4.58
2017-04-20T09:37:15.577Z,4.63
2017-04-20T09:38:15.360Z,5.48
2017-04-20T09:39:15.004Z,4.90
2017-04-20T09:40:14.641Z,5.28
2017-04-20T09:41:14.280Z,7.90
2017-04-20T09:42:13.909Z,8.88
2017-04-20T09:43:13.631Z,6.82
2017-04-20T09:44:13.299Z,5.88
2017-04-20T09:45:12.904Z,5.33
2017-04-20T09:46:12.616Z,6.12
2017-04-20T09:47:12.971Z,5.58
2017-04-20T09:48:12.593Z,4.72
2017-04-20T09:49:12.696Z,3.70
2017-04-20T09:50:12.716Z,4.43
2017-04-20T09:51:12.346Z,5.40
2017-04-20T09:52:11.990Z,4.63
2017-04-20T09:53:11.732Z,5.05
2017-04-20T09:54:11.372Z,4.98
2017-04-20T09:55:10.996Z,5.75
2017-04-20T09:56:10.665Z,5.58
2017-04-20T09:57:10.287Z,4.80
2017-04-20T09:58:09.896Z,3.85
2017-04-20T09:59:09.619Z,6.33
2017-04-20T10:00:09.270Z,3.92
2017-04-20T10:01:09.012Z,4.88
2017-04-20T10:02:08.673Z,4.85
2017-04-20T10:03:08.409Z,4.55
2017-04-20T10:04:08.156Z,4.88
2017-04-20T10:05:07.909Z,5.07
2017-04-20T10:06:07.545Z,5.15
2017-04-20T10:07:22.072Z,5.12
2017-04-20T10:08:21.750Z,5.58
2017-04-20T10:09:22.100Z,4.77
2017-04-20T10:10:21.744Z,3.87
2017-04-20T10:11:21.459Z,4.93
2017-04-20T10:12:21.079Z,4.40
2017-04-20T10:13:20.748Z,4.13
2017-04-20T10:14:20.385Z,3.62
2017-04-20T10:15:20.032Z,4.02
2017-04-20T10:16:19.744Z,4.28
2017-04-20T10:17:20.108Z,3.70
2017-04-20T10:18:19.739Z,5.30
2017-04-20T10:19:19.412Z,5.17
2017-04-20T10:20:19.015Z,5.67
2017-04-20T10:21:19.371Z,4.58
2017-04-20T10:22:18.987Z,4.05
2017-04-20T10:23:18.623Z,4.95
2017-04-20T10:24:18.233Z,4.83
2017-04-20T10:25:17.980Z,4.40
2017-04-20T10:26:17.612Z,4.30
2017-04-20T10:27:17.220Z,4.20
2017-04-20T10:28:16.840Z,5.48
2017-04-20T10:29:17.215Z,5.28
2017-04-20T10:30:16.837Z,4.30
2017-04-20T10:31:16.517Z,5.13
2017-04-20T10:32:16.129Z,6.70
2017-04-20T10:33:15.751Z,7.27
2017-04-20T10:34:15.440Z,6.58
2017-04-20T10:35:15.139Z,4.98
2017-04-20T10:36:14.759Z,4.65
2017-04-20T10:37:14.434Z,4.53
2017-04-20T10:38:14.809Z,5.47
2017-04-20T10:39:14.435Z,4.58
2017-04-20T10:40:14.144Z,3.72
2017-04-20T10:41:13.757Z,3.63
2017-04-20T10:42:13.384Z,4.80
2017-04-20T10:43:13.035Z,4.03
2017-04-20T10:44:13.412Z,4.42
2017-04-20T10:45:13.147Z,4.55
2017-04-20T10:46:12.771Z,4.68
2017-04-20T10:47:12.384Z,5.25
2017-04-20T10:48:11.997Z,4.23
2017-04-20T10:49:12.406Z,5.22
2017-04-20T10:50:12.031Z,4.28
2017-04-20T10:51:11.746Z,4.97
2017-04-20T10:52:12.116Z,4.47
2017-04-20T10:53:11.728Z,4.88
2017-04-20T10:54:11.361Z,4.40
2017-04-20T10:55:11.017Z,4.20
2017-04-20T10:56:11.466Z,4.13
2017-04-20T10:57:11.852Z,4.88
2017-04-20T10:58:11.479Z,4.07
2017-04-20T10:59:11.844Z,4.52
2017-04-20T11:00:11.589Z,4.25
2017-04-20T11:01:11.297Z,5.05
2017-04-20T11:02:10.988Z,5.02
2017-04-20T11:03:11.352Z,4.03
2017-04-20T11:04:11.048Z,5.07
2017-04-20T11:05:10.685Z,4.45
2017-04-20T11:06:10.379Z,4.62
2017-04-20T11:07:10.094Z,4.95
2017-04-20T11:08:09.713Z,4.80
2017-04-20T11:09:09.320Z,4.75
2017-04-20T11:10:08.949Z,5.27
2017-04-20T11:11:09.305Z,4.48
2017-04-20T11:12:08.969Z,4.50
2017-04-20T11:13:08.604Z,5.27
2017-04-20T11:14:09.005Z,5.37
2017-04-20T11:15:09.375Z,4.80
2017-04-20T11:16:08.991Z,5.67
2017-04-20T11:17:09.465Z,4.53
2017-04-20T11:18:09.089Z,4.93
2017-04-20T11:19:08.708Z,4.85
2017-04-20T11:20:08.338Z,5.50
2017-04-20T11:21:07.970Z,4.95
2017-04-20T11:22:07.592Z,4.22
2017-04-20T11:23:07.261Z,5.53
2017-04-20T11:24:06.887Z,5.23
2017-04-20T11:25:06.528Z,4.72
2017-04-20T11:26:06.144Z,5.15
2017-04-20T11:27:05.760Z,5.80
2017-04-20T11:28:05.389Z,5.47
2017-04-20T11:29:05.069Z,4.95
2017-04-20T11:30:04.794Z,5.48
2017-04-20T11:31:05.159Z,6.30
2017-04-20T11:32:04.779Z,6.40
2017-04-20T11:33:04.529Z,4.92
2017-04-20T11:34:04.148Z,4.82
2017-04-20T11:35:03.852Z,4.68
2017-04-20T11:36:03.467Z,5.22
2017-04-20T11:37:03.077Z,4.80
2017-04-20T11:38:02.792Z,5.10
2017-04-20T11:39:03.158Z,5.48
2017-04-20T11:40:02.772Z,5.63
2017-04-20T11:41:02.499Z,5.57
2017-04-20T11:42:02.858Z,4.60
2017-04-20T11:44:11.165Z,5.63
2017-04-20T11:45:10.784Z,5.27
2017-04-20T11:46:10.460Z,6.03
2017-04-20T11:47:10.417Z,6.72
2017-04-20T11:48:10.049Z,6.10
2017-04-20T11:49:09.669Z,6.22
2017-04-20T11:50:09.291Z,5.02
2017-04-20T11:51:08.904Z,6.53
2017-04-20T11:52:08.572Z,5.28
2017-04-20T11:53:08.209Z,5.50
2017-04-20T11:54:07.832Z,7.07
2017-04-20T11:55:07.484Z,5.63
2017-04-20T11:56:07.101Z,6.77
2017-04-20T11:57:06.718Z,6.47
2017-04-20T11:58:06.384Z,6.43
2017-04-20T11:59:06.752Z,6.37
2017-04-20T12:00:06.369Z,5.47
2017-04-20T12:01:06.047Z,5.47
2017-04-20T12:02:05.668Z,5.35
2017-04-20T12:03:05.289Z,5.25
2017-04-20T12:04:04.990Z,6.02
2017-04-20T12:05:04.747Z,5.88
2017-04-20T12:06:04.479Z,6.60
2017-04-20T12:07:04.863Z,11.97
2017-04-20T12:08:04.489Z,4.88
2017-04-20T12:09:05.539Z,5.40
2017-04-20T12:10:05.202Z,6.93
2017-04-20T12:11:04.818Z,5.20
2017-04-20T12:12:05.190Z,5.80
2017-04-20T12:13:04.815Z,5.28
2017-04-20T12:14:04.525Z,5.82
2017-04-20T12:15:04.234Z,5.30
2017-04-20T12:16:03.922Z,4.98
2017-04-20T12:17:03.550Z,4.78
2017-04-20T12:18:03.165Z,5.35
2017-04-20T12:19:02.790Z,5.20
2017-04-20T12:20:02.422Z,5.40
2017-04-20T12:21:02.094Z,4.98
2017-04-20T12:22:01.721Z,5.82
2017-04-20T12:23:01.328Z,6.17
2017-04-20T12:24:00.953Z,5.62
2017-04-20T12:25:00.592Z,4.25
2017-04-20T12:26:00.290Z,5.97
2017-04-20T12:26:59.948Z,6.23
2017-04-20T12:27:59.559Z,4.73
2017-04-20T12:28:59.200Z,5.10
2017-04-20T12:29:58.826Z,5.80
2017-04-20T12:30:59.308Z,5.55
2017-04-20T12:33:07.739Z,5.70
2017-04-20T12:34:07.417Z,4.92
2017-04-20T12:35:07.035Z,5.50
2017-04-20T12:36:06.654Z,4.93
2017-04-20T12:37:07.104Z,4.80
2017-04-20T12:38:06.781Z,5.02
2017-04-20T12:39:06.804Z,5.15
2017-04-20T12:40:06.614Z,5.42
2017-04-20T12:41:06.296Z,5.17
2017-04-20T12:42:05.873Z,6.30
2017-04-20T12:43:05.524Z,5.48
2017-04-20T12:44:05.136Z,5.18
2017-04-20T12:45:04.869Z,4.57
2017-04-20T12:46:04.489Z,5.70
2017-04-20T12:47:04.145Z,5.42
2017-04-20T12:48:03.759Z,4.93
2017-04-20T12:49:03.368Z,5.18
2017-04-20T12:50:03.085Z,5.15
2017-04-20T12:51:02.753Z,6.00
2017-04-20T12:52:02.375Z,6.02
2017-04-20T12:53:02.078Z,5.28
2017-04-20T12:54:01.708Z,5.38
2017-04-20T12:55:01.298Z,5.75
2017-04-20T12:56:00.939Z,5.18
2017-04-20T12:57:00.835Z,5.48
2017-04-20T12:58:00.479Z,5.23
2017-04-20T12:59:00.857Z,5.08
2017-04-20T13:00:00.479Z,7.30
2017-04-20T13:01:00.841Z,5.85
2017-04-20T13:02:00.508Z,7.33
2017-04-20T13:03:00.120Z,5.85
2017-04-20T13:03:59.809Z,6.40
2017-04-20T13:04:59.457Z,5.77
2017-04-20T13:05:59.167Z,5.17
2017-04-20T13:06:58.879Z,5.07
2017-04-20T13:07:58.543Z,5.72
2017-04-20T13:08:58.198Z,5.58
2017-04-20T13:09:57.844Z,5.43
2017-04-20T13:10:57.466Z,4.82
2017-04-20T13:11:57.165Z,5.32
2017-04-20T13:12:56.804Z,5.75
2017-04-20T13:13:56.472Z,5.52
2017-04-20T13:14:57.079Z,5.32
2017-04-20T13:15:56.707Z,5.83
2017-04-20T13:16:56.326Z,6.05
2017-04-20T13:17:55.940Z,5.43